sensor_id;sensor_type;location;lat;lon;timestamp;temperature;humidity
44509;DHT22;30214;52.246;14.408;2023-12-22T00:02:25;5.20;99.90
44509;DHT22;30214;52.246;14.408;2023-12-22T00:04:55;5.30;99.90
44509;DHT22;30214;52.246;14.408;2023-12-22T00:07:23;5.30;99.90
44509;DHT22;30214;52.246;14.408;2023-12-22T00:09:50;5.30;99.90
44509;DHT22;30214;52.246;14.408;2023-12-22T00:12:17;5.30;99.90
44509;DHT22;30214;52.246;14.408;2023-12-22T00:14:44;5.30;99.90
44509;DHT22;30214;52.246;14.408;2023-12-22T00:17:12;5.30;99.90
44509;DHT22;30214;52.246;14.408;2023-12-22T00:19:39;5.30;99.90
44509;DHT22;30214;52.246;14.408;2023-12-22T00:22:08;5.20;99.90
44509;DHT22;30214;52.246;14.408;2023-12-22T00:24:35;5.30;99.90
44509;DHT22;30214;52.246;14.408;2023-12-22T00:27:03;5.30;99.90
44509;DHT22;30214;52.246;14.408;2023-12-22T00:29:31;5.30;99.90
44509;DHT22;30214;52.246;14.408;2023-12-22T00:32:01;5.20;99.90
44509;DHT22;30214;52.246;14.408;2023-12-22T00:34:29;5.20;99.90
44509;DHT22;30214;52.246;14.408;2023-12-22T00:36:57;5.20;99.90
44509;DHT22;30214;52.246;14.408;2023-12-22T00:39:27;5.20;99.90
44509;DHT22;30214;52.246;14.408;2023-12-22T00:41:54;5.10;99.90
44509;DHT22;30214;52.246;14.408;2023-12-22T00:44:22;5.10;99.90
44509;DHT22;30214;52.246;14.408;2023-12-22T00:46:54;4.90;99.90
44509;DHT22;30214;52.246;14.408;2023-12-22T00:49:22;4.90;99.90
44509;DHT22;30214;52.246;14.408;2023-12-22T00:51:49;4.80;99.90
44509;DHT22;30214;52.246;14.408;2023-12-22T00:54:16;4.80;99.90
44509;DHT22;30214;52.246;14.408;2023-12-22T00:56:45;4.70;99.90
44509;DHT22;30214;52.246;14.408;2023-12-22T00:59:13;4.70;99.90
44509;DHT22;30214;52.246;14.408;2023-12-22T01:01:40;4.60;99.90
44509;DHT22;30214;52.246;14.408;2023-12-22T01:04:07;4.60;99.90
44509;DHT22;30214;52.246;14.408;2023-12-22T01:06:37;4.60;99.90
44509;DHT22;30214;52.246;14.408;2023-12-22T01:09:05;4.50;99.90
44509;DHT22;30214;52.246;14.408;2023-12-22T01:11:32;4.50;99.90
44509;DHT22;30214;52.246;14.408;2023-12-22T01:14:01;4.50;99.90
44509;DHT22;30214;52.246;14.408;2023-12-22T01:16:29;4.50;99.90
44509;DHT22;30214;52.246;14.408;2023-12-22T01:18:58;4.50;99.90
44509;DHT22;30214;52.246;14.408;2023-12-22T01:21:26;4.50;99.90
44509;DHT22;30214;52.246;14.408;2023-12-22T01:23:53;4.50;99.90
44509;DHT22;30214;52.246;14.408;2023-12-22T01:26:21;4.50;99.90
44509;DHT22;30214;52.246;14.408;2023-12-22T01:28:48;4.40;99.90
44509;DHT22;30214;52.246;14.408;2023-12-22T01:31:17;4.40;99.90
44509;DHT22;30214;52.246;14.408;2023-12-22T01:33:45;4.50;99.90
44509;DHT22;30214;52.246;14.408;2023-12-22T01:36:12;4.50;99.90
44509;DHT22;30214;52.246;14.408;2023-12-22T01:38:40;4.40;99.90
44509;DHT22;30214;52.246;14.408;2023-12-22T01:41:07;4.40;99.90
44509;DHT22;30214;52.246;14.408;2023-12-22T01:43:34;4.40;99.90
44509;DHT22;30214;52.246;14.408;2023-12-22T01:46:02;4.40;99.90
44509;DHT22;30214;52.246;14.408;2023-12-22T01:48:31;4.50;99.90
44509;DHT22;30214;52.246;14.408;2023-12-22T01:51:00;4.40;99.90
44509;DHT22;30214;52.246;14.408;2023-12-22T01:53:29;4.40;99.90
44509;DHT22;30214;52.246;14.408;2023-12-22T01:55:58;4.50;99.90
44509;DHT22;30214;52.246;14.408;2023-12-22T01:58:27;4.50;99.90
44509;DHT22;30214;52.246;14.408;2023-12-22T02:00:56;4.50;99.90
44509;DHT22;30214;52.246;14.408;2023-12-22T02:03:24;4.50;99.90
44509;DHT22;30214;52.246;14.408;2023-12-22T02:05:53;4.40;99.90
44509;DHT22;30214;52.246;14.408;2023-12-22T02:08:31;4.40;99.90
44509;DHT22;30214;52.246;14.408;2023-12-22T02:10:59;4.40;99.90
44509;DHT22;30214;52.246;14.408;2023-12-22T02:13:27;4.40;99.90
44509;DHT22;30214;52.246;14.408;2023-12-22T02:16:00;4.40;99.90
44509;DHT22;30214;52.246;14.408;2023-12-22T02:18:34;4.40;99.90
44509;DHT22;30214;52.246;14.408;2023-12-22T02:21:03;4.30;99.90
44509;DHT22;30214;52.246;14.408;2023-12-22T02:23:32;4.20;99.90
44509;DHT22;30214;52.246;14.408;2023-12-22T02:26:06;4.10;99.90
44509;DHT22;30214;52.246;14.408;2023-12-22T02:28:37;4.10;99.90
44509;DHT22;30214;52.246;14.408;2023-12-22T02:31:12;4.10;99.90
44509;DHT22;30214;52.246;14.408;2023-12-22T02:33:44;4.10;99.90
44509;DHT22;30214;52.246;14.408;2023-12-22T02:36:13;4.10;99.90
44509;DHT22;30214;52.246;14.408;2023-12-22T02:38:44;4.10;99.90
44509;DHT22;30214;52.246;14.408;2023-12-22T02:41:12;4.10;99.90
44509;DHT22;30214;52.246;14.408;2023-12-22T02:43:41;4.10;99.90
44509;DHT22;30214;52.246;14.408;2023-12-22T02:46:13;4.10;99.90
44509;DHT22;30214;52.246;14.408;2023-12-22T02:48:40;4.10;99.90
44509;DHT22;30214;52.246;14.408;2023-12-22T02:51:11;4.00;99.90
44509;DHT22;30214;52.246;14.408;2023-12-22T02:53:38;4.10;99.90
44509;DHT22;30214;52.246;14.408;2023-12-22T02:56:07;4.10;99.90
44509;DHT22;30214;52.246;14.408;2023-12-22T02:58:34;4.10;99.90
44509;DHT22;30214;52.246;14.408;2023-12-22T03:01:02;4.00;99.90
44509;DHT22;30214;52.246;14.408;2023-12-22T03:03:29;4.00;99.90
44509;DHT22;30214;52.246;14.408;2023-12-22T03:05:57;3.90;99.90
44509;DHT22;30214;52.246;14.408;2023-12-22T03:08:24;3.90;99.90
44509;DHT22;30214;52.246;14.408;2023-12-22T03:10:51;4.00;99.90
44509;DHT22;30214;52.246;14.408;2023-12-22T03:13:22;4.00;99.90
44509;DHT22;30214;52.246;14.408;2023-12-22T03:15:49;4.00;99.90
44509;DHT22;30214;52.246;14.408;2023-12-22T03:18:16;4.10;99.90
44509;DHT22;30214;52.246;14.408;2023-12-22T03:20:43;4.10;99.90
44509;DHT22;30214;52.246;14.408;2023-12-22T03:23:11;4.20;99.90
44509;DHT22;30214;52.246;14.408;2023-12-22T03:25:38;4.20;99.90
44509;DHT22;30214;52.246;14.408;2023-12-22T03:28:05;4.20;99.90
44509;DHT22;30214;52.246;14.408;2023-12-22T03:30:34;4.20;99.90
44509;DHT22;30214;52.246;14.408;2023-12-22T03:33:03;4.20;99.90
44509;DHT22;30214;52.246;14.408;2023-12-22T03:35:33;4.10;99.90
44509;DHT22;30214;52.246;14.408;2023-12-22T03:38:01;4.00;99.90
44509;DHT22;30214;52.246;14.408;2023-12-22T03:40:29;4.00;99.90
44509;DHT22;30214;52.246;14.408;2023-12-22T03:42:56;3.90;99.90
44509;DHT22;30214;52.246;14.408;2023-12-22T03:45:23;3.90;99.90
44509;DHT22;30214;52.246;14.408;2023-12-22T03:47:51;4.00;99.90
44509;DHT22;30214;52.246;14.408;2023-12-22T03:50:19;4.00;99.90
44509;DHT22;30214;52.246;14.408;2023-12-22T03:52:46;3.80;99.90
44509;DHT22;30214;52.246;14.408;2023-12-22T03:55:13;3.80;99.90
44509;DHT22;30214;52.246;14.408;2023-12-22T03:57:40;3.90;99.90
44509;DHT22;30214;52.246;14.408;2023-12-22T04:00:09;3.90;99.90
44509;DHT22;30214;52.246;14.408;2023-12-22T04:02:36;3.90;99.90
44509;DHT22;30214;52.246;14.408;2023-12-22T04:05:05;3.90;99.90
44509;DHT22;30214;52.246;14.408;2023-12-22T04:07:32;3.70;99.90
44509;DHT22;30214;52.246;14.408;2023-12-22T04:10:00;3.70;99.90
44509;DHT22;30214;52.246;14.408;2023-12-22T04:12:28;3.70;99.90
44509;DHT22;30214;52.246;14.408;2023-12-22T04:14:55;3.80;99.90
44509;DHT22;30214;52.246;14.408;2023-12-22T04:17:22;3.80;99.90
44509;DHT22;30214;52.246;14.408;2023-12-22T04:19:50;3.80;99.90
44509;DHT22;30214;52.246;14.408;2023-12-22T04:22:19;3.80;99.90
44509;DHT22;30214;52.246;14.408;2023-12-22T04:24:47;3.70;99.90
44509;DHT22;30214;52.246;14.408;2023-12-22T04:27:14;3.70;99.90
44509;DHT22;30214;52.246;14.408;2023-12-22T04:29:41;3.70;99.90
44509;DHT22;30214;52.246;14.408;2023-12-22T04:32:08;3.70;99.90
44509;DHT22;30214;52.246;14.408;2023-12-22T04:34:37;3.70;99.90
44509;DHT22;30214;52.246;14.408;2023-12-22T04:37:04;3.60;99.90
44509;DHT22;30214;52.246;14.408;2023-12-22T04:39:33;3.60;99.90
44509;DHT22;30214;52.246;14.408;2023-12-22T04:42:01;3.60;99.90
44509;DHT22;30214;52.246;14.408;2023-12-22T04:44:28;3.60;99.90
44509;DHT22;30214;52.246;14.408;2023-12-22T04:46:56;3.60;99.90
44509;DHT22;30214;52.246;14.408;2023-12-22T04:49:23;3.70;99.90
44509;DHT22;30214;52.246;14.408;2023-12-22T04:51:50;3.80;99.90
44509;DHT22;30214;52.246;14.408;2023-12-22T04:54:18;3.80;99.90
44509;DHT22;30214;52.246;14.408;2023-12-22T04:56:46;3.70;99.90
44509;DHT22;30214;52.246;14.408;2023-12-22T04:59:14;3.70;99.90
44509;DHT22;30214;52.246;14.408;2023-12-22T05:01:41;3.80;99.90
44509;DHT22;30214;52.246;14.408;2023-12-22T05:04:08;3.80;99.90
44509;DHT22;30214;52.246;14.408;2023-12-22T05:06:36;3.80;99.90
44509;DHT22;30214;52.246;14.408;2023-12-22T05:09:03;3.70;99.90
44509;DHT22;30214;52.246;14.408;2023-12-22T05:11:30;3.70;99.90
44509;DHT22;30214;52.246;14.408;2023-12-22T05:13:59;3.70;99.90
44509;DHT22;30214;52.246;14.408;2023-12-22T05:16:27;3.70;99.90
44509;DHT22;30214;52.246;14.408;2023-12-22T05:18:56;3.60;99.90
44509;DHT22;30214;52.246;14.408;2023-12-22T05:21:24;3.60;99.90
44509;DHT22;30214;52.246;14.408;2023-12-22T05:23:53;3.60;99.90
44509;DHT22;30214;52.246;14.408;2023-12-22T05:26:23;3.60;99.90
44509;DHT22;30214;52.246;14.408;2023-12-22T05:28:51;3.60;99.90
44509;DHT22;30214;52.246;14.408;2023-12-22T05:31:19;3.50;99.90
44509;DHT22;30214;52.246;14.408;2023-12-22T05:33:46;3.60;99.90
44509;DHT22;30214;52.246;14.408;2023-12-22T05:36:14;3.60;99.90
44509;DHT22;30214;52.246;14.408;2023-12-22T05:38:41;3.50;99.90
44509;DHT22;30214;52.246;14.408;2023-12-22T05:41:11;3.50;99.90
44509;DHT22;30214;52.246;14.408;2023-12-22T05:43:38;3.50;99.90
44509;DHT22;30214;52.246;14.408;2023-12-22T05:46:06;3.40;99.90
44509;DHT22;30214;52.246;14.408;2023-12-22T05:48:35;3.30;99.90
44509;DHT22;30214;52.246;14.408;2023-12-22T05:51:03;3.00;99.90
44509;DHT22;30214;52.246;14.408;2023-12-22T05:53:33;2.70;99.90
44509;DHT22;30214;52.246;14.408;2023-12-22T05:55:59;2.50;99.90
44509;DHT22;30214;52.246;14.408;2023-12-22T05:58:26;2.40;99.90
44509;DHT22;30214;52.246;14.408;2023-12-22T06:00:54;2.30;99.90
44509;DHT22;30214;52.246;14.408;2023-12-22T06:03:21;2.30;99.90
44509;DHT22;30214;52.246;14.408;2023-12-22T06:05:50;2.30;99.90
44509;DHT22;30214;52.246;14.408;2023-12-22T06:08:17;2.30;99.90
44509;DHT22;30214;52.246;14.408;2023-12-22T06:10:44;2.40;99.90
44509;DHT22;30214;52.246;14.408;2023-12-22T06:13:11;2.40;99.90
44509;DHT22;30214;52.246;14.408;2023-12-22T06:15:38;2.50;99.90
44509;DHT22;30214;52.246;14.408;2023-12-22T06:18:06;2.50;99.90
44509;DHT22;30214;52.246;14.408;2023-12-22T06:20:33;2.60;99.90
44509;DHT22;30214;52.246;14.408;2023-12-22T06:23:02;2.50;99.90
44509;DHT22;30214;52.246;14.408;2023-12-22T06:25:30;2.50;99.90
44509;DHT22;30214;52.246;14.408;2023-12-22T06:27:57;2.50;99.90
44509;DHT22;30214;52.246;14.408;2023-12-22T06:30:25;2.50;99.90
44509;DHT22;30214;52.246;14.408;2023-12-22T06:32:52;2.50;99.90
44509;DHT22;30214;52.246;14.408;2023-12-22T06:35:20;2.50;99.90
44509;DHT22;30214;52.246;14.408;2023-12-22T06:37:49;2.60;99.90
44509;DHT22;30214;52.246;14.408;2023-12-22T06:40:18;2.60;99.90
44509;DHT22;30214;52.246;14.408;2023-12-22T06:42:46;2.60;99.90
44509;DHT22;30214;52.246;14.408;2023-12-22T06:45:13;2.50;99.90
44509;DHT22;30214;52.246;14.408;2023-12-22T06:47:41;2.50;99.90
44509;DHT22;30214;52.246;14.408;2023-12-22T06:50:08;2.60;99.90
44509;DHT22;30214;52.246;14.408;2023-12-22T06:52:36;2.70;99.90
44509;DHT22;30214;52.246;14.408;2023-12-22T06:55:04;2.70;99.90
44509;DHT22;30214;52.246;14.408;2023-12-22T06:57:36;2.70;99.90
44509;DHT22;30214;52.246;14.408;2023-12-22T07:00:08;2.70;99.90
44509;DHT22;30214;52.246;14.408;2023-12-22T07:02:36;2.60;99.90
44509;DHT22;30214;52.246;14.408;2023-12-22T07:08:05;2.50;99.90
44509;DHT22;30214;52.246;14.408;2023-12-22T07:10:33;2.50;99.90
44509;DHT22;30214;52.246;14.408;2023-12-22T07:13:01;2.50;99.90
44509;DHT22;30214;52.246;14.408;2023-12-22T07:15:28;2.50;99.90
44509;DHT22;30214;52.246;14.408;2023-12-22T07:17:55;2.60;99.90
44509;DHT22;30214;52.246;14.408;2023-12-22T07:20:23;2.60;99.90
44509;DHT22;30214;52.246;14.408;2023-12-22T07:22:54;2.60;99.90
44509;DHT22;30214;52.246;14.408;2023-12-22T07:25:22;2.60;99.90
44509;DHT22;30214;52.246;14.408;2023-12-22T07:27:49;2.70;99.90
44509;DHT22;30214;52.246;14.408;2023-12-22T07:30:18;2.70;99.90
44509;DHT22;30214;52.246;14.408;2023-12-22T07:32:46;2.80;99.90
44509;DHT22;30214;52.246;14.408;2023-12-22T07:35:17;2.80;99.90
44509;DHT22;30214;52.246;14.408;2023-12-22T07:37:45;2.80;99.90
44509;DHT22;30214;52.246;14.408;2023-12-22T07:40:12;2.80;99.90
44509;DHT22;30214;52.246;14.408;2023-12-22T07:42:40;2.70;99.90
44509;DHT22;30214;52.246;14.408;2023-12-22T07:45:08;2.60;99.90
44509;DHT22;30214;52.246;14.408;2023-12-22T07:47:41;2.50;99.90
44509;DHT22;30214;52.246;14.408;2023-12-22T07:50:09;2.40;99.90
44509;DHT22;30214;52.246;14.408;2023-12-22T07:52:36;2.40;99.90
44509;DHT22;30214;52.246;14.408;2023-12-22T07:55:06;2.40;99.90
44509;DHT22;30214;52.246;14.408;2023-12-22T07:57:36;2.40;99.90
44509;DHT22;30214;52.246;14.408;2023-12-22T08:00:05;2.30;99.90
44509;DHT22;30214;52.246;14.408;2023-12-22T08:02:45;2.30;99.90
44509;DHT22;30214;52.246;14.408;2023-12-22T08:05:13;2.40;99.90
44509;DHT22;30214;52.246;14.408;2023-12-22T08:07:41;2.40;99.90
44509;DHT22;30214;52.246;14.408;2023-12-22T08:10:08;2.50;99.90
44509;DHT22;30214;52.246;14.408;2023-12-22T08:12:37;2.50;99.90
44509;DHT22;30214;52.246;14.408;2023-12-22T08:15:06;2.50;99.90
44509;DHT22;30214;52.246;14.408;2023-12-22T08:17:36;2.50;99.90
44509;DHT22;30214;52.246;14.408;2023-12-22T08:20:08;2.50;99.90
44509;DHT22;30214;52.246;14.408;2023-12-22T08:22:36;2.50;99.90
44509;DHT22;30214;52.246;14.408;2023-12-22T08:25:04;2.50;99.90
44509;DHT22;30214;52.246;14.408;2023-12-22T08:27:33;2.50;99.90
44509;DHT22;30214;52.246;14.408;2023-12-22T08:30:03;2.60;99.90
44509;DHT22;30214;52.246;14.408;2023-12-22T08:32:31;2.60;99.90
44509;DHT22;30214;52.246;14.408;2023-12-22T08:34:59;2.80;99.90
44509;DHT22;30214;52.246;14.408;2023-12-22T08:37:28;2.80;99.90
44509;DHT22;30214;52.246;14.408;2023-12-22T08:39:56;2.80;99.90
44509;DHT22;30214;52.246;14.408;2023-12-22T08:42:23;2.90;99.90
44509;DHT22;30214;52.246;14.408;2023-12-22T08:44:50;2.90;99.90
44509;DHT22;30214;52.246;14.408;2023-12-22T08:47:18;3.00;99.90
44509;DHT22;30214;52.246;14.408;2023-12-22T08:49:48;3.00;99.90
44509;DHT22;30214;52.246;14.408;2023-12-22T08:52:16;3.00;99.90
44509;DHT22;30214;52.246;14.408;2023-12-22T08:54:45;3.10;99.90
44509;DHT22;30214;52.246;14.408;2023-12-22T08:57:18;3.20;99.90
44509;DHT22;30214;52.246;14.408;2023-12-22T08:59:45;3.20;99.90
44509;DHT22;30214;52.246;14.408;2023-12-22T09:02:13;3.30;99.90
44509;DHT22;30214;52.246;14.408;2023-12-22T09:04:42;3.30;99.90
44509;DHT22;30214;52.246;14.408;2023-12-22T09:07:10;3.30;99.90
44509;DHT22;30214;52.246;14.408;2023-12-22T09:09:40;3.40;99.90
44509;DHT22;30214;52.246;14.408;2023-12-22T09:12:09;3.50;99.90
44509;DHT22;30214;52.246;14.408;2023-12-22T09:14:36;3.50;99.90
44509;DHT22;30214;52.246;14.408;2023-12-22T09:17:04;3.60;99.90
44509;DHT22;30214;52.246;14.408;2023-12-22T09:19:35;3.60;99.90
44509;DHT22;30214;52.246;14.408;2023-12-22T09:22:05;3.60;99.90
44509;DHT22;30214;52.246;14.408;2023-12-22T09:24:35;3.60;99.90
44509;DHT22;30214;52.246;14.408;2023-12-22T09:27:03;3.70;99.90
44509;DHT22;30214;52.246;14.408;2023-12-22T09:29:32;3.60;99.90
44509;DHT22;30214;52.246;14.408;2023-12-22T09:32:01;3.60;99.90
44509;DHT22;30214;52.246;14.408;2023-12-22T09:34:29;3.50;99.90
44509;DHT22;30214;52.246;14.408;2023-12-22T09:36:57;3.60;99.90
44509;DHT22;30214;52.246;14.408;2023-12-22T09:39:24;3.70;99.90
44509;DHT22;30214;52.246;14.408;2023-12-22T09:41:55;3.70;99.90
44509;DHT22;30214;52.246;14.408;2023-12-22T09:44:26;3.70;99.90
44509;DHT22;30214;52.246;14.408;2023-12-22T09:47:04;3.70;99.90
44509;DHT22;30214;52.246;14.408;2023-12-22T09:49:33;3.70;99.90
44509;DHT22;30214;52.246;14.408;2023-12-22T09:52:05;3.70;99.90
44509;DHT22;30214;52.246;14.408;2023-12-22T09:54:33;3.80;99.90
44509;DHT22;30214;52.246;14.408;2023-12-22T09:57:02;3.90;99.90
44509;DHT22;30214;52.246;14.408;2023-12-22T09:59:34;3.80;99.90
44509;DHT22;30214;52.246;14.408;2023-12-22T10:02:03;3.90;99.90
44509;DHT22;30214;52.246;14.408;2023-12-22T10:04:35;3.90;99.90
44509;DHT22;30214;52.246;14.408;2023-12-22T10:07:04;3.90;99.90
44509;DHT22;30214;52.246;14.408;2023-12-22T10:09:34;3.90;99.90
44509;DHT22;30214;52.246;14.408;2023-12-22T10:12:03;3.90;99.90
44509;DHT22;30214;52.246;14.408;2023-12-22T10:14:33;3.90;99.90
44509;DHT22;30214;52.246;14.408;2023-12-22T10:17:06;3.90;99.90
44509;DHT22;30214;52.246;14.408;2023-12-22T10:19:34;3.90;99.90
44509;DHT22;30214;52.246;14.408;2023-12-22T10:22:04;3.90;99.90
44509;DHT22;30214;52.246;14.408;2023-12-22T10:24:38;3.90;99.90
44509;DHT22;30214;52.246;14.408;2023-12-22T10:27:08;4.00;99.90
44509;DHT22;30214;52.246;14.408;2023-12-22T10:29:37;4.10;99.90
44509;DHT22;30214;52.246;14.408;2023-12-22T10:32:06;4.10;99.90
44509;DHT22;30214;52.246;14.408;2023-12-22T10:34:34;4.10;99.90
44509;DHT22;30214;52.246;14.408;2023-12-22T10:37:05;4.20;99.90
44509;DHT22;30214;52.246;14.408;2023-12-22T10:39:36;4.20;99.90
44509;DHT22;30214;52.246;14.408;2023-12-22T10:42:07;4.30;99.90
44509;DHT22;30214;52.246;14.408;2023-12-22T10:44:35;4.30;99.90
44509;DHT22;30214;52.246;14.408;2023-12-22T10:47:05;4.40;99.90
44509;DHT22;30214;52.246;14.408;2023-12-22T10:49:32;4.40;99.90
44509;DHT22;30214;52.246;14.408;2023-12-22T10:52:00;4.40;99.90
44509;DHT22;30214;52.246;14.408;2023-12-22T10:54:27;4.30;99.90
44509;DHT22;30214;52.246;14.408;2023-12-22T10:56:58;4.30;99.90
44509;DHT22;30214;52.246;14.408;2023-12-22T10:59:28;4.40;99.90
44509;DHT22;30214;52.246;14.408;2023-12-22T11:02:03;4.40;99.90
44509;DHT22;30214;52.246;14.408;2023-12-22T11:04:31;4.40;99.90
44509;DHT22;30214;52.246;14.408;2023-12-22T11:07:05;4.40;99.90
44509;DHT22;30214;52.246;14.408;2023-12-22T11:09:35;4.40;99.90
44509;DHT22;30214;52.246;14.408;2023-12-22T11:12:05;4.50;99.90
44509;DHT22;30214;52.246;14.408;2023-12-22T11:14:34;4.60;99.90
44509;DHT22;30214;52.246;14.408;2023-12-22T11:17:05;4.60;99.90
44509;DHT22;30214;52.246;14.408;2023-12-22T11:19:34;4.80;99.90
44509;DHT22;30214;52.246;14.408;2023-12-22T11:22:03;4.80;99.90
44509;DHT22;30214;52.246;14.408;2023-12-22T11:24:31;4.80;99.90
44509;DHT22;30214;52.246;14.408;2023-12-22T11:26:59;4.80;99.90
44509;DHT22;30214;52.246;14.408;2023-12-22T11:29:29;4.80;99.90
44509;DHT22;30214;52.246;14.408;2023-12-22T11:31:58;4.80;99.90
44509;DHT22;30214;52.246;14.408;2023-12-22T11:34:36;4.80;99.90
44509;DHT22;30214;52.246;14.408;2023-12-22T11:37:06;4.80;99.90
44509;DHT22;30214;52.246;14.408;2023-12-22T11:39:35;4.90;99.90
44509;DHT22;30214;52.246;14.408;2023-12-22T11:42:04;4.80;99.90
44509;DHT22;30214;52.246;14.408;2023-12-22T11:44:34;4.80;99.90
44509;DHT22;30214;52.246;14.408;2023-12-22T11:47:06;4.70;99.90
44509;DHT22;30214;52.246;14.408;2023-12-22T11:49:36;4.80;99.90
44509;DHT22;30214;52.246;14.408;2023-12-22T11:52:10;4.80;99.90
44509;DHT22;30214;52.246;14.408;2023-12-22T11:54:46;4.80;99.90
44509;DHT22;30214;52.246;14.408;2023-12-22T11:57:35;4.80;99.90
44509;DHT22;30214;52.246;14.408;2023-12-22T12:00:06;4.80;99.90
44509;DHT22;30214;52.246;14.408;2023-12-22T12:02:40;4.80;99.90
44509;DHT22;30214;52.246;14.408;2023-12-22T12:05:10;4.80;99.90
44509;DHT22;30214;52.246;14.408;2023-12-22T12:07:41;4.80;99.90
44509;DHT22;30214;52.246;14.408;2023-12-22T12:10:11;4.80;99.90
44509;DHT22;30214;52.246;14.408;2023-12-22T12:12:40;4.80;99.90
44509;DHT22;30214;52.246;14.408;2023-12-22T12:15:12;4.80;99.90
44509;DHT22;30214;52.246;14.408;2023-12-22T12:17:43;4.80;99.90
44509;DHT22;30214;52.246;14.408;2023-12-22T12:20:12;4.90;99.90
44509;DHT22;30214;52.246;14.408;2023-12-22T12:22:42;4.90;99.90
44509;DHT22;30214;52.246;14.408;2023-12-22T12:25:10;4.90;99.90
44509;DHT22;30214;52.246;14.408;2023-12-22T12:27:40;4.90;99.90
44509;DHT22;30214;52.246;14.408;2023-12-22T12:30:11;5.00;99.90
44509;DHT22;30214;52.246;14.408;2023-12-22T12:32:43;5.00;99.90
44509;DHT22;30214;52.246;14.408;2023-12-22T12:35:12;5.00;99.90
44509;DHT22;30214;52.246;14.408;2023-12-22T12:37:40;5.00;99.90
44509;DHT22;30214;52.246;14.408;2023-12-22T12:40:11;5.00;99.90
44509;DHT22;30214;52.246;14.408;2023-12-22T12:42:38;5.00;99.90
44509;DHT22;30214;52.246;14.408;2023-12-22T12:45:07;5.00;99.90
44509;DHT22;30214;52.246;14.408;2023-12-22T12:47:35;5.10;99.90
44509;DHT22;30214;52.246;14.408;2023-12-22T12:50:05;5.00;99.90
44509;DHT22;30214;52.246;14.408;2023-12-22T12:52:36;5.00;99.90
44509;DHT22;30214;52.246;14.408;2023-12-22T12:55:05;5.00;99.90
44509;DHT22;30214;52.246;14.408;2023-12-22T12:57:36;5.00;99.90
44509;DHT22;30214;52.246;14.408;2023-12-22T13:00:06;5.10;99.90
44509;DHT22;30214;52.246;14.408;2023-12-22T13:02:35;5.10;99.90
44509;DHT22;30214;52.246;14.408;2023-12-22T13:05:04;5.10;99.90
44509;DHT22;30214;52.246;14.408;2023-12-22T13:07:37;5.10;99.90
44509;DHT22;30214;52.246;14.408;2023-12-22T13:10:06;5.10;99.90
44509;DHT22;30214;52.246;14.408;2023-12-22T13:12:46;5.10;99.90
44509;DHT22;30214;52.246;14.408;2023-12-22T13:15:13;5.00;99.90
44509;DHT22;30214;52.246;14.408;2023-12-22T13:17:40;5.00;99.90
44509;DHT22;30214;52.246;14.408;2023-12-22T13:20:09;4.90;99.90
44509;DHT22;30214;52.246;14.408;2023-12-22T13:22:39;4.80;99.90
44509;DHT22;30214;52.246;14.408;2023-12-22T13:25:07;4.80;99.90
44509;DHT22;30214;52.246;14.408;2023-12-22T13:27:44;4.80;99.90
44509;DHT22;30214;52.246;14.408;2023-12-22T13:30:12;4.80;99.90
44509;DHT22;30214;52.246;14.408;2023-12-22T13:32:40;4.80;99.90
44509;DHT22;30214;52.246;14.408;2023-12-22T13:35:07;4.80;99.90
44509;DHT22;30214;52.246;14.408;2023-12-22T13:37:41;4.70;99.90
44509;DHT22;30214;52.246;14.408;2023-12-22T13:40:10;4.70;99.90
44509;DHT22;30214;52.246;14.408;2023-12-22T13:42:39;4.60;99.90
44509;DHT22;30214;52.246;14.408;2023-12-22T13:45:10;4.70;99.90
44509;DHT22;30214;52.246;14.408;2023-12-22T13:47:40;4.70;99.90
44509;DHT22;30214;52.246;14.408;2023-12-22T13:50:13;4.70;99.90
44509;DHT22;30214;52.246;14.408;2023-12-22T13:52:43;4.70;99.90
44509;DHT22;30214;52.246;14.408;2023-12-22T13:55:11;4.70;99.90
44509;DHT22;30214;52.246;14.408;2023-12-22T13:57:39;4.60;99.90
44509;DHT22;30214;52.246;14.408;2023-12-22T14:00:25;4.60;99.90
44509;DHT22;30214;52.246;14.408;2023-12-22T14:02:54;4.60;99.90
44509;DHT22;30214;52.246;14.408;2023-12-22T14:05:21;4.50;99.90
44509;DHT22;30214;52.246;14.408;2023-12-22T14:07:50;4.50;99.90
44509;DHT22;30214;52.246;14.408;2023-12-22T14:10:17;4.50;99.90
44509;DHT22;30214;52.246;14.408;2023-12-22T14:12:44;4.50;99.90
44509;DHT22;30214;52.246;14.408;2023-12-22T14:15:13;4.50;99.90
44509;DHT22;30214;52.246;14.408;2023-12-22T14:17:40;4.50;99.90
44509;DHT22;30214;52.246;14.408;2023-12-22T14:20:09;4.50;99.90
44509;DHT22;30214;52.246;14.408;2023-12-22T14:22:37;4.40;99.90
44509;DHT22;30214;52.246;14.408;2023-12-22T14:25:07;4.40;99.90
44509;DHT22;30214;52.246;14.408;2023-12-22T14:27:35;4.40;99.90
44509;DHT22;30214;52.246;14.408;2023-12-22T14:30:02;4.40;99.90
44509;DHT22;30214;52.246;14.408;2023-12-22T14:32:35;4.40;99.90
44509;DHT22;30214;52.246;14.408;2023-12-22T14:35:06;4.50;99.90
44509;DHT22;30214;52.246;14.408;2023-12-22T14:37:34;4.50;99.90
44509;DHT22;30214;52.246;14.408;2023-12-22T14:40:01;4.40;99.90
44509;DHT22;30214;52.246;14.408;2023-12-22T14:42:31;4.40;99.90
44509;DHT22;30214;52.246;14.408;2023-12-22T14:45:01;4.40;99.90
44509;DHT22;30214;52.246;14.408;2023-12-22T14:47:31;4.40;99.90
44509;DHT22;30214;52.246;14.408;2023-12-22T14:50:00;4.40;99.90
44509;DHT22;30214;52.246;14.408;2023-12-22T14:52:29;4.50;99.90
44509;DHT22;30214;52.246;14.408;2023-12-22T14:54:57;4.50;99.90
44509;DHT22;30214;52.246;14.408;2023-12-22T14:57:25;4.50;99.90
44509;DHT22;30214;52.246;14.408;2023-12-22T14:59:55;4.50;99.90
44509;DHT22;30214;52.246;14.408;2023-12-22T15:02:23;4.50;99.90
44509;DHT22;30214;52.246;14.408;2023-12-22T15:04:50;4.50;99.90
44509;DHT22;30214;52.246;14.408;2023-12-22T15:07:18;4.50;99.90
44509;DHT22;30214;52.246;14.408;2023-12-22T15:09:46;4.50;99.90
44509;DHT22;30214;52.246;14.408;2023-12-22T15:12:14;4.40;99.90
44509;DHT22;30214;52.246;14.408;2023-12-22T15:14:43;4.40;99.90
44509;DHT22;30214;52.246;14.408;2023-12-22T15:17:13;4.40;99.90
44509;DHT22;30214;52.246;14.408;2023-12-22T15:19:42;4.30;99.90
44509;DHT22;30214;52.246;14.408;2023-12-22T15:22:10;4.30;99.90
44509;DHT22;30214;52.246;14.408;2023-12-22T15:24:37;4.30;99.90
44509;DHT22;30214;52.246;14.408;2023-12-22T15:27:06;4.30;99.90
44509;DHT22;30214;52.246;14.408;2023-12-22T15:29:34;4.30;99.90
44509;DHT22;30214;52.246;14.408;2023-12-22T15:32:01;4.20;99.90
44509;DHT22;30214;52.246;14.408;2023-12-22T15:34:35;4.20;99.90
44509;DHT22;30214;52.246;14.408;2023-12-22T15:37:06;4.20;99.90
44509;DHT22;30214;52.246;14.408;2023-12-22T15:39:34;4.20;99.90
44509;DHT22;30214;52.246;14.408;2023-12-22T15:42:01;4.10;99.90
44509;DHT22;30214;52.246;14.408;2023-12-22T15:44:29;4.10;99.90